Time;durP1;ratioP1;P1;durP2;ratioP2;P2;SDS_P1;SDS_P2;PMS_P1;PMS_P2;Temp;Humidity;BMP_temperature;BMP_pressure;BME280_temperature;BME280_humidity;BME280_pressure;Samples;Min_cycle;Max_cycle;Signal;HPM_P1;HPM_P2
2023/09/12 00:00:47;;;;;;;10.45;6.68;;;;;;;17.20;100.00;96925.78;5025202;28;20045;-63
2023/09/12 00:03:14;;;;;;;11.00;6.18;;;;;;;16.93;100.00;96924.66;5029918;28;20042;-64
2023/09/12 00:05:41;;;;;;;11.80;6.85;;;;;;;16.90;100.00;96918.72;5025059;28;20050;-63
2023/09/12 00:08:08;;;;;;;10.60;7.20;;;;;;;17.02;100.00;96920.09;5020728;28;20044;-63
2023/09/12 00:10:34;;;;;;;12.00;6.90;;;;;;;17.20;100.00;96917.56;5030443;28;20037;-63
2023/09/12 00:13:02;;;;;;;15.00;6.75;;;;;;;17.38;100.00;96916.63;5022710;28;20036;-63
2023/09/12 00:15:29;;;;;;;13.10;6.53;;;;;;;17.42;100.00;96914.91;5029072;28;20069;-65
2023/09/12 00:17:55;;;;;;;9.00;6.25;;;;;;;17.48;100.00;96920.25;5022251;28;20049;-63
2023/09/12 00:20:22;;;;;;;12.75;6.78;;;;;;;17.52;100.00;96913.88;5027857;28;20116;-65
2023/09/12 00:22:49;;;;;;;11.05;6.95;;;;;;;17.57;100.00;96918.41;5024000;28;20042;-65
2023/09/12 00:25:15;;;;;;;11.20;7.13;;;;;;;17.53;100.00;96914.66;5027189;28;20042;-65
2023/09/12 00:27:42;;;;;;;9.48;6.75;;;;;;;17.59;100.00;96913.44;5024932;28;20059;-63
2023/09/12 00:30:09;;;;;;;12.60;7.45;;;;;;;17.64;100.00;96912.50;5027625;28;20030;-65
2023/09/12 00:32:36;;;;;;;14.85;7.03;;;;;;;17.68;100.00;96906.09;5023358;28;20056;-65
2023/09/12 00:35:03;;;;;;;14.85;6.32;;;;;;;17.73;100.00;96905.16;5022686;28;20061;-65
2023/09/12 00:37:29;;;;;;;10.10;6.32;;;;;;;17.80;100.00;96908.28;5025610;28;20039;-64
2023/09/12 00:39:56;;;;;;;11.30;6.65;;;;;;;17.86;100.00;96906.22;5022192;28;20041;-64
2023/09/12 00:42:26;;;;;;;12.38;6.10;;;;;;;17.87;100.00;96907.06;5027729;28;20037;-63
2023/09/12 00:44:52;;;;;;;11.73;6.68;;;;;;;17.85;100.00;96912.84;5020023;28;20041;-63
2023/09/12 00:47:20;;;;;;;12.05;7.10;;;;;;;17.81;100.00;96898.16;5024307;28;20806;-63
2023/09/12 00:49:50;;;;;;;13.10;7.15;;;;;;;17.78;100.00;96899.59;5024853;28;20420;-62
2023/09/12 00:52:24;;;;;;;10.27;6.68;;;;;;;17.77;100.00;96899.88;5025393;28;20041;-63
2023/09/12 00:54:52;;;;;;;11.98;7.18;;;;;;;17.57;100.00;96907.44;5023674;28;20050;-63
2023/09/12 00:57:20;;;;;;;10.38;6.50;;;;;;;17.54;100.00;96902.59;5028281;28;20045;-64
2023/09/12 00:59:47;;;;;;;10.85;6.88;;;;;;;17.40;100.00;96897.97;5008426;28;20045;-63
2023/09/12 01:02:14;;;;;;;12.52;7.78;;;;;;;17.27;100.00;96891.44;5032232;28;20553;-64
2023/09/12 01:04:42;;;;;;;9.18;6.78;;;;;;;17.15;100.00;96893.88;5029588;28;20060;-63
2023/09/12 01:07:08;;;;;;;12.63;7.40;;;;;;;17.08;100.00;96897.03;5026934;28;20128;-64
2023/09/12 01:09:36;;;;;;;12.55;6.95;;;;;;;16.97;100.00;96893.69;5030882;28;20095;-64
2023/09/12 01:12:03;;;;;;;10.20;7.07;;;;;;;16.92;100.00;96899.28;5026353;28;20038;-64
2023/09/12 01:14:30;;;;;;;13.25;7.13;;;;;;;16.98;100.00;96891.75;5030639;28;20411;-63
2023/09/12 01:16:58;;;;;;;15.90;9.05;;;;;;;17.01;100.00;96896.59;5033606;28;20140;-65
2023/09/12 01:19:25;;;;;;;12.80;7.03;;;;;;;17.05;100.00;96891.34;5028040;28;20034;-64
2023/09/12 01:22:29;;;;;;;10.27;7.13;;;;;;;17.11;100.00;96888.22;5026617;28;20038;-65
2023/09/12 01:25:48;;;;;;;11.15;6.97;;;;;;;17.16;100.00;96895.50;5030242;28;20040;-63
2023/09/12 01:28:16;;;;;;;8.77;6.60;;;;;;;17.10;100.00;96894.78;5014986;28;20111;-65
2023/09/12 01:30:46;;;;;;;13.00;7.38;;;;;;;16.98;100.00;96898.03;5021726;28;20052;-65
2023/09/12 01:33:13;;;;;;;13.82;7.88;;;;;;;16.93;100.00;96900.88;5027585;28;20041;-64
2023/09/12 01:35:40;;;;;;;17.63;7.22;;;;;;;16.99;100.00;96896.91;5025659;28;20041;-64
2023/09/12 01:38:07;;;;;;;12.30;6.57;;;;;;;17.10;100.00;96888.53;5033079;28;20037;-63
2023/09/12 01:40:46;;;;;;;11.85;7.03;;;;;;;17.00;100.00;96890.31;5026975;28;20772;-64
2023/09/12 01:43:16;;;;;;;12.50;7.60;;;;;;;16.96;100.00;96899.47;5023834;28;20042;-64
2023/09/12 01:45:44;;;;;;;10.65;6.40;;;;;;;17.00;100.00;96895.78;5018948;28;20521;-63
2023/09/12 01:48:13;;;;;;;10.18;7.03;;;;;;;17.13;100.00;96891.47;5024435;28;20041;-63
2023/09/12 01:50:39;;;;;;;10.93;7.25;;;;;;;17.19;100.00;96894.06;5028982;28;20071;-65
2023/09/12 01:53:06;;;;;;;11.10;7.15;;;;;;;17.25;100.00;96893.66;5025866;28;20050;-63
2023/09/12 01:55:34;;;;;;;13.05;7.30;;;;;;;17.33;100.00;96891.31;5024905;28;20037;-63
2023/09/12 01:58:01;;;;;;;9.90;6.15;;;;;;;17.34;100.00;96887.44;5024054;28;20041;-64
2023/09/12 02:00:28;;;;;;;10.90;6.93;;;;;;;17.33;100.00;96891.31;5024433;28;20052;-65
2023/09/12 02:02:55;;;;;;;12.43;6.68;;;;;;;17.31;100.00;96888.88;5024085;28;20103;-65
2023/09/12 02:05:22;;;;;;;13.65;7.00;;;;;;;17.24;100.00;96886.56;5024606;28;20123;-65
2023/09/12 02:07:49;;;;;;;10.85;6.70;;;;;;;17.15;100.00;96885.69;5057906;28;20045;-65
2023/09/12 02:10:16;;;;;;;11.38;7.55;;;;;;;17.16;100.00;96885.38;5006270;28;20132;-66
2023/09/12 02:12:43;;;;;;;12.45;6.50;;;;;;;17.14;100.00;96886.81;5002581;28;20049;-65
2023/09/12 02:15:10;;;;;;;10.65;6.90;;;;;;;17.08;100.00;96879.81;5027723;28;20065;-63
2023/09/12 02:17:38;;;;;;;11.52;6.90;;;;;;;17.03;100.00;96884.25;5025368;28;20051;-63
2023/09/12 02:20:07;;;;;;;9.02;5.85;;;;;;;17.06;100.00;96882.84;5025432;28;20079;-64
2023/09/12 02:22:34;;;;;;;13.68;6.75;;;;;;;17.01;100.00;96883.75;5023408;28;20045;-64
2023/09/12 02:25:00;;;;;;;12.13;7.13;;;;;;;17.02;100.00;96877.16;4987955;28;20049;-64
2023/09/12 02:27:27;;;;;;;10.75;7.05;;;;;;;16.99;100.00;96879.72;4979508;28;20127;-65
2023/09/12 02:29:55;;;;;;;11.27;7.15;;;;;;;17.00;100.00;96876.66;4978898;28;20520;-63
2023/09/12 02:32:21;;;;;;;12.80;7.45;;;;;;;17.08;100.00;96880.63;5003313;28;20073;-63
2023/09/12 02:34:48;;;;;;;13.02;7.30;;;;;;;17.10;100.00;96869.38;5021625;28;20040;-64
2023/09/12 02:37:15;;;;;;;12.30;7.78;;;;;;;17.06;100.00;96871.91;5039193;28;20668;-64
2023/09/12 02:39:42;;;;;;;11.57;7.43;;;;;;;16.91;100.00;96873.00;5026474;28;20046;-63
2023/09/12 02:42:09;;;;;;;16.67;7.03;;;;;;;16.87;100.00;96874.75;5023585;28;20070;-64
2023/09/12 02:44:35;;;;;;;10.15;7.15;;;;;;;16.90;100.00;96866.75;5019326;28;20045;-64
2023/09/12 02:47:03;;;;;;;14.02;7.07;;;;;;;16.99;100.00;96875.03;5022985;28;20037;-63
2023/09/12 02:49:31;;;;;;;15.20;7.75;;;;;;;16.96;100.00;96875.66;5025073;28;20118;-63
2023/09/12 02:51:58;;;;;;;13.52;7.13;;;;;;;16.93;100.00;96870.81;5024034;28;20131;-64
2023/09/12 02:54:24;;;;;;;10.38;7.35;;;;;;;16.94;100.00;96866.13;5029312;28;20496;-63
2023/09/12 02:56:51;;;;;;;14.95;7.43;;;;;;;16.93;100.00;96867.25;5022749;28;20037;-63
2023/09/12 02:59:18;;;;;;;9.73;6.38;;;;;;;16.91;100.00;96859.34;5024938;28;20034;-65
2023/09/12 03:01:45;;;;;;;13.20;8.07;;;;;;;16.93;100.00;96861.78;5006079;28;20083;-64
2023/09/12 03:04:12;;;;;;;11.52;7.00;;;;;;;16.95;100.00;96865.03;5020972;28;20531;-65
2023/09/12 03:06:38;;;;;;;12.73;7.50;;;;;;;16.86;100.00;96867.66;5026290;28;20037;-66
2023/09/12 03:09:06;;;;;;;13.43;7.13;;;;;;;16.66;100.00;96864.22;5026027;28;20055;-64
2023/09/12 03:11:33;;;;;;;15.88;8.73;;;;;;;16.51;100.00;96857.13;5024911;28;20681;-64
2023/09/12 03:13:59;;;;;;;11.52;7.30;;;;;;;16.47;100.00;96867.88;5024881;28;20048;-65
2023/09/12 03:16:26;;;;;;;11.93;7.03;;;;;;;16.38;100.00;96864.22;5030309;28;20447;-63
2023/09/12 03:18:53;;;;;;;11.43;7.05;;;;;;;16.47;100.00;96859.69;5021442;28;20514;-65
2023/09/12 03:21:19;;;;;;;14.32;7.30;;;;;;;16.52;100.00;96859.56;5022488;28;20483;-64
2023/09/12 03:23:46;;;;;;;10.23;6.75;;;;;;;16.69;100.00;96857.38;5023047;28;20045;-63
2023/09/12 03:26:13;;;;;;;10.70;6.30;;;;;;;16.68;100.00;96853.81;5023864;28;20076;-65
2023/09/12 03:28:41;;;;;;;13.95;7.07;;;;;;;16.67;100.00;96857.66;5023846;28;20504;-64
2023/09/12 03:31:12;;;;;;;9.80;6.20;;;;;;;16.51;100.00;96866.16;5023264;28;20552;-65
2023/09/12 03:33:40;;;;;;;13.77;6.78;;;;;;;16.40;100.00;96855.75;5021922;28;20413;-63
2023/09/12 03:36:07;;;;;;;15.25;8.13;;;;;;;16.56;100.00;96851.59;5024062;28;20041;-63
2023/09/12 03:38:34;;;;;;;16.13;8.00;;;;;;;16.89;100.00;96850.66;5021897;28;20103;-63
2023/09/12 03:41:01;;;;;;;12.65;6.50;;;;;;;17.15;100.00;96856.38;5023964;28;20048;-65
2023/09/12 03:43:30;;;;;;;10.27;6.10;;;;;;;17.47;100.00;96851.03;5024438;28;20034;-62
2023/09/12 03:45:57;;;;;;;15.63;7.78;;;;;;;17.62;100.00;96854.53;5019385;28;20052;-63
2023/09/12 03:48:24;;;;;;;13.13;6.60;;;;;;;17.61;100.00;96855.66;5023067;28;20139;-64
2023/09/12 03:50:51;;;;;;;11.70;6.57;;;;;;;17.74;100.00;96859.44;5022638;28;20111;-63
2023/09/12 03:53:18;;;;;;;13.75;6.85;;;;;;;17.80;100.00;96855.47;5023527;28;20048;-63
2023/09/12 03:55:45;;;;;;;10.07;6.47;;;;;;;17.90;99.36;96855.19;5021505;28;20052;-63
2023/09/12 03:58:11;;;;;;;10.82;6.55;;;;;;;17.85;99.63;96846.28;5020696;28;20038;-64
2023/09/12 04:00:38;;;;;;;11.02;6.57;;;;;;;17.76;100.00;96855.25;5024462;28;20578;-65
2023/09/12 04:03:05;;;;;;;10.80;7.00;;;;;;;17.66;100.00;96852.78;5029040;28;20041;-61
2023/09/12 04:05:31;;;;;;;9.65;6.57;;;;;;;17.60;100.00;96849.34;5026942;28;20037;-63
2023/09/12 04:07:58;;;;;;;12.15;7.50;;;;;;;17.47;100.00;96848.28;5025234;28;20037;-65
2023/09/12 04:10:24;;;;;;;11.55;6.47;;;;;;;17.35;100.00;96848.84;5022434;28;20037;-65
2023/09/12 04:12:51;;;;;;;10.32;7.10;;;;;;;17.32;100.00;96854.13;5022094;28;20124;-65
2023/09/12 04:15:17;;;;;;;12.20;7.88;;;;;;;17.33;100.00;96844.78;5025785;28;20045;-65
2023/09/12 04:17:44;;;;;;;11.32;7.18;;;;;;;17.30;100.00;96846.22;5021508;28;20746;-63
2023/09/12 04:20:13;;;;;;;12.75;7.43;;;;;;;17.25;100.00;96849.88;5021628;28;20042;-63
2023/09/12 04:22:44;;;;;;;11.52;6.68;;;;;;;17.37;100.00;96849.34;5020613;28;20258;-63
2023/09/12 04:25:11;;;;;;;14.35;8.73;;;;;;;17.43;100.00;96852.75;5027895;28;20042;-63
2023/09/12 04:27:38;;;;;;;10.40;7.53;;;;;;;17.46;100.00;96856.81;5025922;28;20033;-63
2023/09/12 04:30:05;;;;;;;11.07;7.00;;;;;;;17.45;100.00;96846.97;5026221;28;20423;-65
2023/09/12 04:32:32;;;;;;;11.98;7.00;;;;;;;17.43;100.00;96852.75;5025087;28;20140;-65
2023/09/12 04:34:59;;;;;;;14.43;7.63;;;;;;;17.40;100.00;96853.41;5025203;28;20045;-65
2023/09/12 04:37:26;;;;;;;13.50;8.63;;;;;;;17.47;100.00;96839.28;5026291;28;20038;-63
2023/09/12 04:39:52;;;;;;;12.00;7.25;;;;;;;17.51;100.00;96843.00;5024851;28;20060;-63
2023/09/12 04:42:20;;;;;;;12.55;6.65;;;;;;;17.59;100.00;96841.44;5025577;28;20578;-63
2023/09/12 04:44:48;;;;;;;14.18;7.63;;;;;;;17.64;100.00;96842.13;5027296;28;20046;-63
2023/09/12 04:47:14;;;;;;;14.00;7.35;;;;;;;17.72;100.00;96842.53;5025510;28;20067;-63
2023/09/12 04:49:43;;;;;;;14.60;7.18;;;;;;;17.79;100.00;96843.69;5026592;28;20038;-63
2023/09/12 04:52:10;;;;;;;13.27;7.75;;;;;;;17.88;100.00;96851.16;5025324;28;20038;-63
2023/09/12 04:54:36;;;;;;;14.45;7.32;;;;;;;17.88;100.00;96843.72;5024843;28;20040;-65
2023/09/12 04:57:03;;;;;;;11.95;6.93;;;;;;;17.88;100.00;96843.72;5023735;28;20494;-65
2023/09/12 04:59:30;;;;;;;12.95;7.30;;;;;;;17.88;100.00;96851.16;5022198;28;20513;-63
2023/09/12 05:01:57;;;;;;;11.75;6.47;;;;;;;17.91;100.00;96856.00;5021985;28;20040;-63
2023/09/12 05:04:24;;;;;;;12.35;6.90;;;;;;;17.96;100.00;96852.31;5024223;28;20053;-63
2023/09/12 05:06:50;;;;;;;12.88;6.45;;;;;;;17.96;100.00;96846.84;5024716;28;20037;-68
2023/09/12 05:09:17;;;;;;;17.83;7.28;;;;;;;17.99;99.90;96851.69;5025507;28;20536;-63
2023/09/12 05:11:44;;;;;;;12.07;7.20;;;;;;;18.12;99.31;96855.50;5021483;28;20057;-64
2023/09/12 05:14:10;;;;;;;10.60;6.78;;;;;;;18.17;98.94;96849.91;5023416;28;20072;-64
2023/09/12 05:16:37;;;;;;;10.98;6.47;;;;;;;18.23;98.63;96850.53;5023292;28;20064;-63
2023/09/12 05:19:05;;;;;;;11.25;6.65;;;;;;;18.28;99.04;96855.91;5021755;28;20051;-64
2023/09/12 05:21:31;;;;;;;10.35;7.07;;;;;;;18.09;100.00;96856.94;5022516;28;20037;-64
2023/09/12 05:23:58;;;;;;;12.00;8.20;;;;;;;18.15;99.76;96852.94;5023999;28;20041;-64
2023/09/12 05:26:25;;;;;;;9.82;6.47;;;;;;;18.32;98.72;96854.16;5023645;28;20566;-64
2023/09/12 05:28:52;;;;;;;11.77;7.57;;;;;;;18.42;97.78;96861.28;5021179;28;20538;-64
2023/09/12 05:31:19;;;;;;;14.73;7.38;;;;;;;18.64;95.97;96863.13;5023986;28;20033;-64
2023/09/12 05:33:45;;;;;;;11.25;6.93;;;;;;;18.81;94.96;96869.81;5022630;28;20501;-64
2023/09/12 05:36:12;;;;;;;12.15;6.65;;;;;;;18.94;93.71;96873.56;5025301;28;20084;-64
2023/09/12 05:38:39;;;;;;;11.05;6.53;;;;;;;19.04;93.27;96862.25;5026181;28;20069;-64
2023/09/12 05:41:06;;;;;;;10.50;7.20;;;;;;;18.95;94.11;96869.69;5023742;28;20041;-64
2023/09/12 05:43:33;;;;;;;10.15;6.53;;;;;;;19.04;93.46;96869.69;5021954;28;20038;-63
2023/09/12 05:45:59;;;;;;;10.88;6.80;;;;;;;19.15;93.20;96876.53;5029601;28;20045;-64
2023/09/12 05:48:26;;;;;;;9.00;6.38;;;;;;;19.18;93.08;96877.81;5023703;28;20189;-64
2023/09/12 05:50:53;;;;;;;15.55;6.60;;;;;;;19.34;92.42;96887.19;5022279;28;20042;-64
2023/09/12 05:53:19;;;;;;;11.57;6.63;;;;;;;19.42;92.27;96893.03;5028782;28;20090;-64
2023/09/12 05:55:46;;;;;;;11.38;6.20;;;;;;;19.48;91.41;96895.28;5023802;28;20045;-64
2023/09/12 05:58:13;;;;;;;10.63;6.78;;;;;;;19.55;91.05;96894.78;5024073;28;20144;-64
2023/09/12 06:00:39;;;;;;;11.95;6.75;;;;;;;19.63;90.45;96895.91;5021424;28;20525;-64
2023/09/12 06:03:06;;;;;;;8.60;6.20;;;;;;;19.52;91.67;96908.34;5020607;28;20046;-63
2023/09/12 06:05:33;;;;;;;14.85;6.85;;;;;;;19.44;92.65;96908.03;5007793;28;20051;-63
2023/09/12 06:08:00;;;;;;;14.23;6.55;;;;;;;19.30;93.96;96896.38;5024972;28;20038;-63
2023/09/12 06:10:26;;;;;;;14.05;6.40;;;;;;;19.38;93.02;96903.03;5024145;28;20059;-63
2023/09/12 06:12:53;;;;;;;13.45;7.00;;;;;;;19.43;92.90;96909.19;5021682;28;20736;-65
2023/09/12 06:15:20;;;;;;;11.93;6.32;;;;;;;19.47;93.44;96912.06;5024531;28;20128;-63
2023/09/12 06:17:46;;;;;;;12.35;6.90;;;;;;;19.46;93.64;96910.47;5022176;28;20079;-63
2023/09/12 06:20:13;;;;;;;13.20;6.90;;;;;;;19.49;93.76;96909.81;5023886;28;20041;-64
2023/09/12 06:22:39;;;;;;;12.38;7.75;;;;;;;19.53;92.89;96910.78;5023212;28;20049;-63
2023/09/12 06:25:06;;;;;;;11.90;6.70;;;;;;;19.59;92.46;96912.25;5023203;28;20648;-64
2023/09/12 06:27:33;;;;;;;17.20;7.57;;;;;;;19.58;93.12;96913.38;5022307;28;20088;-64
2023/09/12 06:29:59;;;;;;;11.18;7.20;;;;;;;19.65;92.18;96915.63;5021956;28;20072;-64
2023/09/12 06:32:26;;;;;;;12.77;6.30;;;;;;;19.76;91.50;96916.13;5023294;28;20037;-64
2023/09/12 06:34:53;;;;;;;14.50;8.02;;;;;;;19.73;91.48;96916.75;5023371;28;20079;-63
2023/09/12 06:37:19;;;;;;;11.45;7.00;;;;;;;19.66;92.04;96913.69;5024886;28;20052;-63
2023/09/12 06:39:49;;;;;;;12.98;7.40;;;;;;;19.67;92.17;96918.03;5021003;28;20069;-64
2023/09/12 06:42:16;;;;;;;13.60;6.80;;;;;;;19.58;92.91;96915.31;5022834;28;20049;-63
2023/09/12 06:44:43;;;;;;;10.43;7.05;;;;;;;19.58;93.71;96920.81;5022110;28;20041;-64
2023/09/12 06:47:10;;;;;;;10.25;7.45;;;;;;;19.60;93.70;96916.59;5021591;28;20115;-63
2023/09/12 06:49:37;;;;;;;17.23;7.03;;;;;;;19.60;93.98;96922.09;5027225;28;20068;-64
2023/09/12 06:52:04;;;;;;;13.68;8.07;;;;;;;19.67;93.96;96929.84;5020180;28;20448;-64
2023/09/12 06:54:32;;;;;;;12.93;7.60;;;;;;;19.67;93.79;96920.78;5024771;28;20508;-64
2023/09/12 06:56:59;;;;;;;12.50;7.18;;;;;;;19.70;93.71;96920.97;5022729;28;20041;-64
2023/09/12 06:59:26;;;;;;;16.30;7.50;;;;;;;19.69;93.50;96930.34;5024832;28;20642;-64
2023/09/12 07:01:52;;;;;;;11.02;6.55;;;;;;;19.70;93.80;96936.63;5020811;28;20045;-64
2023/09/12 07:04:19;;;;;;;15.98;7.18;;;;;;;19.75;93.60;96936.47;5021193;28;20045;-64
2023/09/12 07:06:46;;;;;;;19.73;8.23;;;;;;;19.92;92.31;96937.59;5022527;28;20080;-64
2023/09/12 07:09:14;;;;;;;14.75;6.93;;;;;;;20.07;91.79;96942.63;5024034;28;20053;-64
2023/09/12 07:11:41;;;;;;;12.23;5.90;;;;;;;20.20;90.86;96935.31;5021613;28;20133;-64
2023/09/12 07:14:09;;;;;;;11.45;6.20;;;;;;;20.34;89.82;96935.13;5020964;28;20116;-64
2023/09/12 07:16:36;;;;;;;13.60;7.15;;;;;;;20.50;89.08;96935.41;5024521;28;20129;-64
2023/09/12 07:19:03;;;;;;;9.27;6.30;;;;;;;20.57;86.77;96934.94;5022286;28;20069;-63
2023/09/12 07:21:31;;;;;;;12.13;6.82;;;;;;;20.60;86.49;96938.97;5018246;28;20045;-62
2023/09/12 07:23:58;;;;;;;12.23;6.82;;;;;;;20.70;86.02;96935.84;5019183;28;20046;-65
2023/09/12 07:26:24;;;;;;;9.15;6.03;;;;;;;20.81;86.46;96939.03;4992945;28;20053;-63
2023/09/12 07:28:53;;;;;;;11.50;6.85;;;;;;;20.93;87.40;96930.09;5013537;28;20041;-63
2023/09/12 07:31:20;;;;;;;11.48;7.10;;;;;;;21.04;87.05;96936.03;5023478;28;20037;-63
2023/09/12 07:33:47;;;;;;;12.50;5.78;;;;;;;21.14;86.79;96927.41;5021050;28;20077;-62
2023/09/12 07:36:14;;;;;;;12.20;5.75;;;;;;;21.24;86.18;96931.72;5023617;28;20136;-64
2023/09/12 07:38:42;;;;;;;12.30;6.63;;;;;;;21.32;84.88;96938.31;5026605;28;20678;-63
2023/09/12 07:41:09;;;;;;;9.38;5.47;;;;;;;21.38;84.42;96944.44;5020176;28;20041;-65
2023/09/12 07:43:35;;;;;;;8.07;5.65;;;;;;;21.51;83.85;96942.56;5022804;28;20045;-65
2023/09/12 07:46:02;;;;;;;9.65;5.25;;;;;;;21.60;83.95;96948.00;5020635;28;20134;-65
2023/09/12 07:48:29;;;;;;;9.02;5.13;;;;;;;21.65;83.73;96951.38;5021672;28;20041;-64
2023/09/12 07:50:55;;;;;;;10.75;5.85;;;;;;;21.74;83.57;96956.06;5019969;28;20125;-63
2023/09/12 07:53:22;;;;;;;9.95;5.80;;;;;;;21.75;83.75;96954.91;5020525;28;20378;-66
2023/09/12 07:55:49;;;;;;;12.48;7.57;;;;;;;21.81;84.04;96953.53;5023407;28;20512;-64
2023/09/12 07:58:18;;;;;;;9.27;5.30;;;;;;;21.81;84.18;96954.34;5021420;28;20227;-66
2023/09/12 08:00:45;;;;;;;10.70;6.00;;;;;;;21.87;87.16;96954.97;5018891;28;20049;-66
2023/09/12 08:03:12;;;;;;;8.38;5.68;;;;;;;21.94;90.36;96955.25;5025757;28;20138;-66
2023/09/12 08:05:39;;;;;;;8.68;6.15;;;;;;;21.99;89.98;96964.41;5020227;28;20040;-64
2023/09/12 08:08:06;;;;;;;10.20;5.78;;;;;;;22.01;89.01;96957.44;5022459;28;20428;-66
2023/09/12 08:10:32;;;;;;;10.00;5.85;;;;;;;22.06;87.00;96961.94;5022379;28;20037;-65
2023/09/12 08:12:59;;;;;;;9.20;5.32;;;;;;;22.08;84.62;96965.16;5020212;28;20041;-65
2023/09/12 08:15:26;;;;;;;8.82;5.70;;;;;;;22.15;83.35;96957.13;5021838;28;20494;-64
2023/09/12 08:17:54;;;;;;;10.85;6.38;;;;;;;22.27;82.09;96950.88;5022849;28;20132;-59
2023/09/12 08:20:20;;;;;;;10.18;6.07;;;;;;;22.40;81.65;96956.44;5016467;28;20041;-64
2023/09/12 08:22:48;;;;;;;12.00;5.90;;;;;;;22.48;81.10;96959.09;5019787;28;20072;-65
2023/09/12 08:25:15;;;;;;;11.00;6.53;;;;;;;22.66;80.78;96952.63;5022419;28;20045;-65
2023/09/12 08:27:43;;;;;;;8.13;5.63;;;;;;;22.82;80.15;96953.53;5022567;28;20640;-65
2023/09/12 08:30:12;;;;;;;12.27;6.97;;;;;;;23.10;79.71;96952.06;5020547;28;20071;-66
2023/09/12 08:32:43;;;;;;;12.60;6.53;;;;;;;23.32;77.69;96955.50;5023034;28;20037;-65
2023/09/12 08:35:12;;;;;;;10.88;6.88;;;;;;;23.58;77.22;96954.38;5021554;28;20496;-66
2023/09/12 08:37:42;;;;;;;12.52;6.78;;;;;;;23.72;76.63;96959.50;5019450;28;20038;-64
2023/09/12 08:40:10;;;;;;;8.57;6.07;;;;;;;23.78;75.78;96947.84;5021739;28;20042;-66
2023/09/12 08:42:42;;;;;;;13.00;7.30;;;;;;;23.87;75.82;96953.25;5019879;28;20045;-62
2023/09/12 08:45:15;;;;;;;9.82;5.97;;;;;;;23.93;75.05;96956.56;5019981;28;20059;-64
2023/09/12 08:47:50;;;;;;;11.98;6.10;;;;;;;24.02;73.88;96962.75;5023748;28;20042;-66
2023/09/12 08:50:17;;;;;;;9.10;5.93;;;;;;;24.03;72.37;96953.28;5021695;28;20037;-62
2023/09/12 08:52:46;;;;;;;9.23;6.05;;;;;;;24.14;70.70;96955.59;5019988;28;20049;-64
2023/09/12 08:55:33;;;;;;;9.43;5.90;;;;;;;24.27;70.07;96953.56;5021055;28;20052;-61
2023/09/12 08:58:02;;;;;;;9.07;6.20;;;;;;;24.31;69.74;96960.00;5019423;28;20610;-64
2023/09/12 09:00:30;;;;;;;12.73;6.55;;;;;;;24.36;68.45;96958.97;5020919;28;20500;-66
2023/09/12 09:02:58;;;;;;;10.40;5.93;;;;;;;24.41;69.06;96961.47;5019181;28;20045;-66
2023/09/12 09:05:26;;;;;;;10.43;5.80;;;;;;;24.51;67.35;96963.69;5021088;28;20099;-66
2023/09/12 09:07:54;;;;;;;9.38;5.90;;;;;;;24.61;66.63;96964.34;5020794;28;20052;-66
2023/09/12 09:10:22;;;;;;;11.48;6.18;;;;;;;24.65;67.52;96965.22;5017778;28;20052;-66
2023/09/12 09:13:09;;;;;;;9.15;5.90;;;;;;;24.80;65.84;96964.44;5022249;28;20049;-65
2023/09/12 09:15:41;;;;;;;10.43;6.20;;;;;;;24.91;64.19;96956.44;5024208;28;20518;-64
2023/09/12 09:18:10;;;;;;;10.07;5.90;;;;;;;24.96;65.08;96952.63;5021205;28;20150;-64
2023/09/12 09:20:38;;;;;;;7.28;6.03;;;;;;;25.04;63.99;96953.59;5023810;28;20048;-63
2023/09/12 09:23:09;;;;;;;12.40;6.18;;;;;;;25.09;64.83;96945.00;5022807;28;20038;-64
2023/09/12 09:25:51;;;;;;;;;;;;;;;25.20;63.81;96936.94;5024369;28;20128;-65
2023/09/12 09:28:19;;;;;;;13.93;6.78;;;;;;;25.29;63.73;96939.53;5023126;28;19931;-66
2023/09/12 09:30:48;;;;;;;7.60;5.28;;;;;;;25.31;62.63;96937.19;5022154;28;20045;-65
2023/09/12 09:33:15;;;;;;;10.65;6.18;;;;;;;25.40;62.27;96932.28;5023555;28;20132;-66
2023/09/12 09:35:43;;;;;;;10.63;5.97;;;;;;;25.49;61.59;96932.06;5006239;28;20060;-66
2023/09/12 09:38:09;;;;;;;9.27;5.38;;;;;;;25.55;61.99;96938.13;5006467;28;20041;-66
2023/09/12 09:40:36;;;;;;;8.65;5.60;;;;;;;25.59;60.80;96939.03;5000282;28;22077;-65
2023/09/12 09:43:04;;;;;;;9.60;5.95;;;;;;;25.65;60.50;96937.56;4990156;28;20049;-64
2023/09/12 09:45:32;;;;;;;10.00;5.82;;;;;;;25.70;60.35;96936.50;5023827;28;20052;-65
2023/09/12 09:48:07;;;;;;;12.63;5.95;;;;;;;25.84;60.18;96931.25;5022266;28;20033;-65
2023/09/12 09:50:38;;;;;;;9.35;6.30;;;;;;;25.90;60.21;96930.97;5024076;28;20091;-67
2023/09/12 09:53:08;;;;;;;13.18;5.85;;;;;;;25.94;58.99;96932.63;5021335;28;20049;-66
2023/09/12 09:55:34;;;;;;;10.77;5.95;;;;;;;25.99;57.79;96928.78;5019011;28;20041;-66
2023/09/12 09:58:02;;;;;;;9.90;5.90;;;;;;;25.98;57.93;96924.38;5024945;28;20046;-66
2023/09/12 10:00:33;;;;;;;10.07;5.72;;;;;;;26.03;57.55;96923.28;5024807;28;20055;-66
2023/09/12 10:03:04;;;;;;;11.75;6.68;;;;;;;26.23;59.47;96921.28;5024563;28;20642;-67
2023/09/12 10:05:32;;;;;;;11.63;5.97;;;;;;;26.33;57.47;96922.69;5024359;28;20128;-67
2023/09/12 10:08:01;;;;;;;9.35;5.82;;;;;;;26.42;57.60;96914.16;5023874;28;20110;-67
2023/09/12 10:10:30;;;;;;;11.45;6.35;;;;;;;26.48;58.27;96915.44;5020969;28;20041;-68
2023/09/12 10:12:58;;;;;;;9.98;5.70;;;;;;;26.60;58.76;96914.44;5024244;28;20069;-68
2023/09/12 10:15:28;;;;;;;12.07;5.93;;;;;;;26.77;57.75;96918.72;5025587;28;20103;-68
2023/09/12 10:18:08;;;;;;;10.32;6.00;;;;;;;26.83;57.21;96920.00;5024600;28;20045;-68
2023/09/12 10:20:55;;;;;;;10.20;6.43;;;;;;;26.83;56.94;96920.00;5019906;28;20117;-68
2023/09/12 10:23:36;;;;;;;8.80;5.88;;;;;;;26.87;56.01;96918.09;5024514;28;20678;-68
2023/09/12 10:26:04;;;;;;;13.65;5.93;;;;;;;26.96;55.74;96917.88;5023672;28;20049;-68
2023/09/12 10:28:31;;;;;;;9.55;5.70;;;;;;;27.00;56.03;96915.94;5025433;28;20057;-68
2023/09/12 10:31:00;;;;;;;13.57;6.78;;;;;;;27.07;55.07;96925.56;5024920;28;20128;-68
2023/09/12 10:33:31;;;;;;;7.95;5.63;;;;;;;27.13;55.09;96927.63;5028373;28;20052;-68
2023/09/12 10:35:59;;;;;;;11.52;6.35;;;;;;;27.22;53.86;96919.06;5023973;28;20049;-66
2023/09/12 10:38:29;;;;;;;9.13;5.95;;;;;;;27.20;53.97;96928.94;5027371;28;20041;-67
2023/09/12 10:40:57;;;;;;;;;;;;;;;27.20;53.72;96926.16;4994809;28;20312;-63
2023/09/12 10:43:26;;;;;;;14.05;5.80;;;;;;;27.22;54.30;96923.78;5020376;28;19949;-63
2023/09/12 10:45:53;;;;;;;12.93;6.45;;;;;;;27.22;53.07;96916.28;5021139;28;20064;-65
2023/09/12 10:48:20;;;;;;;8.57;5.35;;;;;;;27.25;53.37;96918.31;5022625;28;20045;-65
2023/09/12 10:50:47;;;;;;;8.18;6.13;;;;;;;27.29;53.56;96917.53;4985745;28;20149;-67
2023/09/12 10:53:15;;;;;;;10.25;6.05;;;;;;;27.38;52.86;96918.09;5022022;28;20041;-66
2023/09/12 10:55:50;;;;;;;14.90;6.40;;;;;;;27.48;52.69;96911.06;5021308;28;20069;-65
2023/09/12 10:58:17;;;;;;;12.55;6.10;;;;;;;27.52;52.22;96915.50;5023698;28;20139;-64
2023/09/12 11:01:24;;;;;;;9.68;5.50;;;;;;;27.62;52.07;96902.97;5022928;28;20052;-64
2023/09/12 11:03:51;;;;;;;9.07;5.60;;;;;;;27.68;51.83;96905.41;5021321;28;20045;-66
2023/09/12 11:06:36;;;;;;;9.35;5.82;;;;;;;27.81;51.78;96903.97;5019795;28;20504;-66
2023/09/12 11:09:16;;;;;;;15.52;6.45;;;;;;;27.97;50.91;96900.19;5018743;28;20075;-65
2023/09/12 11:11:46;;;;;;;14.18;6.28;;;;;;;28.09;51.21;96899.94;5023509;28;20121;-65
2023/09/12 11:14:15;;;;;;;10.57;5.68;;;;;;;28.24;51.85;96897.31;5005783;28;20058;-65
2023/09/12 11:16:43;;;;;;;11.10;6.20;;;;;;;28.18;51.78;96899.63;5016112;28;20039;-65
2023/09/12 11:19:23;;;;;;;12.50;6.43;;;;;;;28.10;51.95;96895.97;5022546;28;20527;-66
2023/09/12 11:21:51;;;;;;;11.13;5.90;;;;;;;28.00;52.06;96894.66;5000820;28;20539;-66
2023/09/12 11:24:20;;;;;;;11.27;6.28;;;;;;;28.00;52.46;96883.53;4986524;28;20136;-65
2023/09/12 11:27:05;;;;;;;10.80;6.10;;;;;;;28.10;51.98;96890.41;4978984;28;20053;-65
2023/09/12 11:29:36;;;;;;;10.45;6.22;;;;;;;28.08;52.21;96889.19;5006287;28;20037;-65